Time;durP1;ratioP1;P1;durP2;ratioP2;P2;SDS_P1;SDS_P2;PMS_P1;PMS_P2;Temp;Humidity;BMP_temperature;BMP_pressure;BME280_temperature;BME280_humidity;BME280_pressure;Samples;Min_cycle;Max_cycle;Signal;HPM_P1;HPM_P2
2021/09/14 00:01:33;;;;;;;15.60;7.67;;;18.50;98.60;;;;;;5060976;28;20602;-84
2021/09/14 00:04:00;;;;;;;11.65;8.50;;;18.50;98.70;;;;;;5052722;28;20267;-84
2021/09/14 00:06:25;;;;;;;12.52;7.10;;;18.50;98.60;;;;;;5060400;28;20667;-84
2021/09/14 00:08:51;;;;;;;13.90;7.63;;;18.40;98.90;;;;;;5060437;28;20172;-85
2021/09/14 00:11:17;;;;;;;13.33;7.10;;;18.40;98.90;;;;;;5060135;28;20926;-84
2021/09/14 00:13:43;;;;;;;15.70;8.53;;;18.40;99.10;;;;;;5060406;28;20666;-84
2021/09/14 00:16:09;;;;;;;14.13;7.30;;;18.40;99.10;;;;;;5060459;28;20200;-84
2021/09/14 00:18:35;;;;;;;10.00;6.67;;;18.40;99.10;;;;;;5059985;28;20200;-83
2021/09/14 00:21:01;;;;;;;11.27;6.90;;;18.30;99.10;;;;;;5060067;28;20403;-84
2021/09/14 00:23:26;;;;;;;10.60;7.00;;;18.30;99.10;;;;;;5059938;28;20469;-84
2021/09/14 00:25:52;;;;;;;10.27;6.70;;;18.30;99.10;;;;;;5060239;28;20779;-83
2021/09/14 00:28:18;;;;;;;11.70;7.23;;;18.30;98.90;;;;;;5060235;28;20714;-84
2021/09/14 00:30:44;;;;;;;12.90;7.10;;;18.30;98.80;;;;;;5060122;28;20164;-83
2021/09/14 00:33:09;;;;;;;16.73;7.30;;;18.30;98.90;;;;;;5059395;28;20259;-83
2021/09/14 00:35:35;;;;;;;21.40;8.37;;;18.30;98.90;;;;;;5059148;28;20525;-84
2021/09/14 00:38:01;;;;;;;12.50;7.40;;;18.20;99.10;;;;;;5059624;28;20778;-84
2021/09/14 00:40:27;;;;;;;12.23;6.73;;;18.30;99.10;;;;;;5059692;28;20766;-84
2021/09/14 00:42:52;;;;;;;11.73;6.90;;;18.30;99.10;;;;;;5059972;28;20199;-84
2021/09/14 00:45:18;;;;;;;13.23;7.17;;;18.20;99.10;;;;;;5059647;28;20242;-84
2021/09/14 00:47:44;;;;;;;14.60;7.20;;;18.10;99.10;;;;;;5059693;28;20175;-83
2021/09/14 00:50:10;;;;;;;10.53;8.23;;;18.10;99.10;;;;;;5059656;28;20256;-84
2021/09/14 00:52:36;;;;;;;12.00;8.47;;;18.10;99.10;;;;;;5060027;28;20172;-83
2021/09/14 00:55:06;;;;;;;15.48;7.90;;;18.10;99.10;;;;;;5059624;28;20433;-84
2021/09/14 00:57:31;;;;;;;16.92;9.52;;;18.10;99.10;;;;;;5148086;22;20203;-77
2021/09/14 00:59:57;;;;;;;13.37;8.10;;;18.10;99.10;;;;;;5057616;28;20243;-77
2021/09/14 01:02:23;;;;;;;15.50;8.17;;;18.10;99.10;;;;;;5057659;28;20536;-77
2021/09/14 01:04:49;;;;;;;12.20;7.65;;;18.10;99.10;;;;;;5057586;28;20504;-76
2021/09/14 01:07:15;;;;;;;12.87;8.47;;;18.10;99.10;;;;;;5057707;28;20177;-77
2021/09/14 01:09:42;;;;;;;14.20;7.30;;;18.10;99.10;;;;;;5057574;28;20188;-77
2021/09/14 01:12:10;;;;;;;12.55;7.93;;;18.10;99.10;;;;;;5057239;28;20651;-77
2021/09/14 01:14:35;;;;;;;11.82;7.50;;;18.10;99.10;;;;;;5057534;28;20268;-77
2021/09/14 01:17:01;;;;;;;9.73;7.13;;;18.10;99.10;;;;;;5057682;28;20310;-77
2021/09/14 01:19:27;;;;;;;11.80;7.90;;;18.10;99.10;;;;;;5057344;28;20453;-77
2021/09/14 01:21:53;;;;;;;18.07;7.83;;;18.10;99.10;;;;;;5057310;28;20418;-77
2021/09/14 01:24:18;;;;;;;10.90;8.10;;;18.10;99.10;;;;;;5057286;28;20548;-77
2021/09/14 01:26:44;;;;;;;16.80;9.27;;;18.10;99.10;;;;;;5056937;28;20262;-77
2021/09/14 01:30:10;;;;;;;14.93;8.50;;;18.10;99.10;;;;;;5058804;28;20172;-79
2021/09/14 01:31:58;;;;;;;15.95;9.05;;;18.00;99.10;;;;;;5077739;28;20279;-79
2021/09/14 01:34:23;;;;;;;13.50;7.37;;;18.00;99.10;;;;;;5059691;28;20216;-79
2021/09/14 01:36:49;;;;;;;13.37;9.17;;;18.00;99.10;;;;;;5059997;28;20419;-79
2021/09/14 01:39:15;;;;;;;16.77;8.90;;;18.00;99.10;;;;;;5060063;28;20200;-79
2021/09/14 01:41:40;;;;;;;16.33;9.70;;;18.00;99.10;;;;;;5060165;28;20190;-79
2021/09/14 01:44:06;;;;;;;14.10;8.30;;;18.00;99.10;;;;;;5060371;28;20232;-79
2021/09/14 01:46:33;;;;;;;21.43;11.20;;;18.00;99.10;;;;;;5059344;28;20242;-79
2021/09/14 01:48:59;;;;;;;15.43;9.05;;;18.00;99.10;;;;;;5059121;28;20260;-79
2021/09/14 01:51:25;;;;;;;12.37;8.37;;;18.00;99.10;;;;;;5058331;28;20795;-79
2021/09/14 01:53:54;;;;;;;17.83;8.00;;;18.00;99.10;;;;;;5058374;28;20542;-79
2021/09/14 01:56:19;;;;;;;12.82;8.10;;;18.00;99.10;;;;;;5057932;28;20219;-79
2021/09/14 01:58:45;;;;;;;14.63;9.00;;;18.00;99.10;;;;;;5057942;28;20236;-79
2021/09/14 02:01:24;;;;;;;11.83;8.07;;;17.90;99.10;;;;;;5058223;28;20218;-78
2021/09/14 02:41:52;;;;;;;19.05;9.60;;;;;;;;;;5074138;28;20149;-80
2021/09/14 03:00:30;;;;;;;18.08;9.73;;;;;;;;;;5073523;28;20532;-81
2021/09/14 03:02:57;;;;;;;15.98;10.13;;;;;;;;;;5055696;28;20546;-81
2021/09/14 03:05:23;;;;;;;16.83;9.88;;;;;;;;;;5055640;28;20625;-80
2021/09/14 03:07:49;;;;;;;18.48;10.05;;;;;;;;;;5055656;28;20625;-81
2021/09/14 03:10:15;;;;;;;19.88;10.27;;;;;;;;;;5055721;28;20172;-81
2021/09/14 03:12:41;;;;;;;19.17;10.98;;;;;;;;;;5055890;28;20176;-81
2021/09/14 03:15:07;;;;;;;20.00;9.63;;;;;;;;;;5055869;28;20206;-81
2021/09/14 03:17:33;;;;;;;14.85;9.18;;;;;;;;;;5055568;28;20652;-81
2021/09/14 03:19:59;;;;;;;16.77;9.55;;;;;;;;;;5055351;28;20196;-81
2021/09/14 03:22:26;;;;;;;16.58;8.38;;;;;;;;;;5055462;28;20168;-81
2021/09/14 03:24:52;;;;;;;16.08;9.23;;;;;;;;;;5055276;28;20188;-81
2021/09/14 03:27:18;;;;;;;16.90;9.75;;;;;;;;;;5055126;28;20207;-80
2021/09/14 03:29:44;;;;;;;15.13;9.65;;;;;;;;;;5055226;28;20226;-81
2021/09/14 03:32:10;;;;;;;16.70;9.25;;;;;;;;;;5055245;28;20177;-81
2021/09/14 03:34:37;;;;;;;16.25;9.48;;;;;;;;;;5055537;28;20176;-80
2021/09/14 03:37:03;;;;;;;21.15;9.82;;;;;;;;;;5055376;28;20556;-81
2021/09/14 03:39:29;;;;;;;21.00;9.77;;;;;;;;;;5055303;28;20567;-81
2021/09/14 03:41:55;;;;;;;15.23;9.60;;;;;;;;;;5073270;28;20168;-80
2021/09/14 03:44:21;;;;;;;14.57;9.00;;;;;;;;;;5055117;28;20172;-80
2021/09/14 03:46:47;;;;;;;16.13;9.20;;;;;;;;;;5055275;28;20188;-80
2021/09/14 03:49:13;;;;;;;17.90;9.15;;;;;;;;;;5055702;28;20225;-80
2021/09/14 03:51:39;;;;;;;15.70;9.38;;;;;;;;;;5055397;28;20648;-81
2021/09/14 03:54:05;;;;;;;16.33;9.50;;;;;;;;;;5055342;28;20169;-80
2021/09/14 03:56:31;;;;;;;17.05;10.15;;;;;;;;;;5055211;28;20192;-81
2021/09/14 03:58:57;;;;;;;12.90;8.73;;;;;;;;;;5055730;28;20695;-80
2021/09/14 04:01:24;;;;;;;16.88;9.20;;;;;;;;;;5055454;28;20173;-81
2021/09/14 04:03:59;;;;;;;17.05;9.32;;;;;;;;;;5055675;28;20168;-80
2021/09/14 04:08:54;;;;;;;19.05;9.40;;;;;;;;;;5074490;28;20180;-80
2021/09/14 04:11:21;;;;;;;16.13;9.73;;;;;;;;;;5057810;28;20177;-80
2021/09/14 04:13:48;;;;;;;14.20;8.80;;;;;;;;;;5059475;28;20268;-81
2021/09/14 04:16:14;;;;;;;18.67;10.27;;;;;;;;;;5058757;28;20611;-80
2021/09/14 04:18:41;;;;;;;14.60;9.32;;;;;;;;;;5059255;28;20566;-80
2021/09/14 04:21:07;;;;;;;15.50;9.18;;;;;;;;;;5058973;28;20310;-81
2021/09/14 04:23:33;;;;;;;19.67;8.70;;;;;;;;;;5059077;28;20644;-81
2021/09/14 04:25:59;;;;;;;21.58;10.45;;;;;;;;;;5058853;28;20188;-81
2021/09/14 04:28:25;;;;;;;14.80;9.15;;;;;;;;;;5058856;28;20173;-80
2021/09/14 04:30:51;;;;;;;21.30;10.80;;;;;;;;;;5059058;28;20692;-81
2021/09/14 04:33:17;;;;;;;16.13;9.45;;;;;;;;;;5059027;28;20661;-80
2021/09/14 04:35:43;;;;;;;20.30;9.55;;;;;;;;;;5058479;28;20668;-80
2021/09/14 04:38:09;;;;;;;19.63;10.05;;;;;;;;;;5058710;28;20172;-81
2021/09/14 04:40:35;;;;;;;15.20;10.40;;;;;;;;;;5058791;28;20182;-80
2021/09/14 04:43:02;;;;;;;15.27;8.60;;;;;;;;;;5059067;28;20223;-80
2021/09/14 04:45:28;;;;;;;13.82;8.50;;;;;;;;;;5058204;28;20272;-81
2021/09/14 04:47:54;;;;;;;14.50;8.60;;;;;;;;;;5058674;28;20183;-80
2021/09/14 04:50:20;;;;;;;16.17;9.02;;;;;;;;;;5058973;28;20250;-80
2021/09/14 04:52:46;;;;;;;15.25;8.57;;;;;;;;;;5058600;28;20164;-80
2021/09/14 04:55:13;;;;;;;15.90;9.40;;;;;;;;;;5076375;28;20185;-80
2021/09/14 04:57:39;;;;;;;28.58;10.15;;;;;;;;;;5058243;28;20196;-80
2021/09/14 05:00:05;;;;;;;19.75;10.13;;;;;;;;;;5058401;28;20687;-81
2021/09/14 05:02:31;;;;;;;18.45;10.25;;;;;;;;;;5058221;28;20259;-80
2021/09/14 05:04:58;;;;;;;22.52;10.40;;;;;;;;;;5058707;28;20188;-81
2021/09/14 05:07:24;;;;;;;19.27;11.23;;;;;;;;;;5058215;28;20176;-80
2021/09/14 05:09:50;;;;;;;17.00;10.45;;;;;;;;;;5058569;28;20172;-80
2021/09/14 05:12:17;;;;;;;23.58;11.20;;;;;;;;;;5076341;28;20656;-81
2021/09/14 05:14:43;;;;;;;17.77;10.77;;;;;;;;;;5058233;28;20200;-80
2021/09/14 05:17:09;;;;;;;16.00;10.32;;;;;;;;;;5058158;28;20275;-80
2021/09/14 05:19:37;;;;;;;18.60;11.30;;;;;;;;;;5057921;28;20211;-80
2021/09/14 05:22:04;;;;;;;20.58;10.25;;;;;;;;;;5056950;28;20173;-80
2021/09/14 05:24:31;;;;;;;18.88;11.70;;;;;;;;;;5058075;28;20176;-80
2021/09/14 05:26:57;;;;;;;16.67;9.63;;;;;;;;;;5057706;28;20222;-80
2021/09/14 05:29:24;;;;;;;12.88;8.57;;;;;;;;;;5057664;28;20180;-80
2021/09/14 05:31:51;;;;;;;22.98;10.75;;;;;;;;;;5057902;28;20715;-80
2021/09/14 05:34:17;;;;;;;18.77;9.70;;;;;;;;;;5057811;28;20644;-81
2021/09/14 05:36:43;;;;;;;13.95;8.70;;;;;;;;;;5057665;28;20220;-80
2021/09/14 05:39:10;;;;;;;15.63;8.88;;;;;;;;;;5057304;28;20566;-81
2021/09/14 05:41:36;;;;;;;12.45;8.18;;;;;;;;;;5057297;28;20261;-81
2021/09/14 05:44:02;;;;;;;18.52;10.18;;;;;;;;;;5057536;28;20164;-81
2021/09/14 05:46:28;;;;;;;17.67;10.35;;;;;;;;;;5057145;28;20214;-81
2021/09/14 05:48:54;;;;;;;14.00;8.35;;;;;;;;;;5057488;28;20191;-81
2021/09/14 05:51:21;;;;;;;16.80;9.40;;;;;;;;;;5058045;28;20176;-81
2021/09/14 05:53:47;;;;;;;14.85;8.55;;;;;;;;;;5057090;28;20261;-80
2021/09/14 05:56:14;;;;;;;15.52;8.77;;;;;;;;;;5056766;28;20196;-81
2021/09/14 05:58:40;;;;;;;16.85;9.65;;;;;;;;;;5056932;28;20688;-81
2021/09/14 06:01:07;;;;;;;15.73;9.43;;;;;;;;;;5057303;28;20175;-80
2021/09/14 06:03:34;;;;;;;25.00;8.45;;;;;;;;;;5056676;28;20177;-80
2021/09/14 06:06:00;;;;;;;17.00;9.18;;;;;;;;;;5056685;28;20196;-81
2021/09/14 06:08:26;;;;;;;23.10;10.15;;;;;;;;;;5056822;28;20255;-81
2021/09/14 06:10:52;;;;;;;16.90;10.57;;;;;;;;;;5057250;28;20671;-81
2021/09/14 06:13:19;;;;;;;18.25;11.20;;;;;;;;;;5058019;28;20212;-81
2021/09/14 06:15:45;;;;;;;20.85;10.35;;;;;;;;;;5057408;28;20192;-80
2021/09/14 06:18:11;;;;;;;25.50;11.30;;;;;;;;;;5056634;28;20172;-80
2021/09/14 06:20:37;;;;;;;20.10;11.65;;;;;;;;;;5056843;28;20169;-81
2021/09/14 06:23:04;;;;;;;22.73;11.00;;;;;;;;;;5056714;28;20180;-81
2021/09/14 06:25:30;;;;;;;19.80;9.05;;;;;;;;;;5056103;28;20195;-80
2021/09/14 06:27:56;;;;;;;22.75;12.50;;;;;;;;;;5056388;28;20587;-81
2021/09/14 06:30:22;;;;;;;22.13;10.45;;;;;;;;;;5056254;28;20660;-81
2021/09/14 06:32:48;;;;;;;20.17;9.88;;;;;;;;;;5056334;28;20539;-80
2021/09/14 06:35:14;;;;;;;22.20;10.60;;;;;;;;;;5056060;28;20192;-80
2021/09/14 06:37:41;;;;;;;16.33;10.30;;;;;;;;;;5056268;28;20655;-81
2021/09/14 06:40:07;;;;;;;19.95;10.13;;;;;;;;;;5056343;28;20219;-82
2021/09/14 06:42:33;;;;;;;17.20;10.05;;;;;;;;;;5057123;28;20226;-81
2021/09/14 06:45:01;;;;;;;16.25;10.02;;;;;;;;;;5056109;28;20188;-81
2021/09/14 06:47:27;;;;;;;18.67;11.38;;;;;;;;;;5056217;28;20168;-81
2021/09/14 06:49:53;;;;;;;19.90;10.00;;;;;;;;;;5056179;28;20669;-81
2021/09/14 06:52:19;;;;;;;16.88;9.52;;;;;;;;;;5056460;28;20176;-80
2021/09/14 06:54:45;;;;;;;14.90;10.27;;;;;;;;;;5056144;28;20841;-81
2021/09/14 06:57:11;;;;;;;16.73;9.95;;;;;;;;;;5056427;28;20204;-81
2021/09/14 06:59:37;;;;;;;22.10;10.82;;;;;;;;;;5128525;22;20224;-78
2021/09/14 07:02:03;;;;;;;23.90;10.60;;;;;;;;;;5057459;28;20172;-77
2021/09/14 07:04:29;;;;;;;18.77;9.90;;;;;;;;;;5057663;28;20172;-78
2021/09/14 07:06:55;;;;;;;28.13;10.65;;;;;;;;;;5057938;28;20650;-78
2021/09/14 07:09:21;;;;;;;21.83;11.25;;;;;;;;;;5057592;28;20192;-78
2021/09/14 07:11:47;;;;;;;23.50;11.38;;;;;;;;;;5058022;28;20522;-77
2021/09/14 07:14:15;;;;;;;23.35;11.65;;;;;;;;;;5057996;28;20203;-78
2021/09/14 07:16:41;;;;;;;21.58;10.70;;;;;;;;;;5057269;28;20250;-77
2021/09/14 07:19:07;;;;;;;23.27;10.60;;;;;;;;;;5057945;28;20192;-77
2021/09/14 07:21:34;;;;;;;24.33;10.10;;;;;;;;;;5057590;28;20179;-78
2021/09/14 07:24:00;;;;;;;21.63;9.57;;;;;;;;;;5057696;28;20172;-76
2021/09/14 07:26:26;;;;;;;18.25;8.55;;;;;;;;;;5057395;28;20185;-77
2021/09/14 07:28:52;;;;;;;19.23;9.18;;;;;;;;;;5057568;28;20172;-78
2021/09/14 07:31:18;;;;;;;16.50;7.90;;;;;;;;;;5057466;28;20172;-77
2021/09/14 07:33:44;;;;;;;19.58;10.00;;;;;;;;;;5058223;28;20273;-78
2021/09/14 07:36:10;;;;;;;22.27;10.05;;;;;;;;;;5058327;28;20771;-77
2021/09/14 07:38:39;;;;;;;18.90;10.15;;;;;;;;;;5058464;28;20668;-78
2021/09/14 07:41:05;;;;;;;18.10;8.55;;;;;;;;;;5058068;28;20173;-78
2021/09/14 07:43:31;;;;;;;15.85;9.68;;;;;;;;;;5057666;28;20655;-77
2021/09/14 07:45:57;;;;;;;22.75;11.52;;;;;;;;;;5078136;28;20192;-77
2021/09/14 07:48:23;;;;;;;23.90;10.60;;;;;;;;;;5062300;28;20207;-78
2021/09/14 07:50:50;;;;;;;20.75;10.20;;;;;;;;;;5061681;28;20185;-78
2021/09/14 07:53:16;;;;;;;21.08;10.05;;;;;;;;;;5061997;28;20192;-78
2021/09/14 07:55:42;;;;;;;28.33;10.27;;;;;;;;;;5062288;28;20224;-78
2021/09/14 07:58:08;;;;;;;18.92;9.57;;;;;;;;;;5061544;28;20176;-78
2021/09/14 08:00:34;;;;;;;19.88;11.30;;;;;;;;;;5061893;28;20678;-78
2021/09/14 08:03:00;;;;;;;23.70;9.30;;;;;;;;;;5061100;28;20179;-77
2021/09/14 08:05:27;;;;;;;21.20;9.23;;;;;;;;;;5061579;28;20211;-78
2021/09/14 08:07:54;;;;;;;22.92;9.60;;;;;;;;;;5061566;28;20165;-77
2021/09/14 08:10:20;;;;;;;22.13;8.75;;;;;;;;;;5061465;28;20177;-78
2021/09/14 08:12:46;;;;;;;22.55;8.70;;;;;;;;;;5061792;28;20195;-78
2021/09/14 08:15:13;;;;;;;13.38;8.38;;;;;;;;;;5061663;28;20192;-78
2021/09/14 08:17:39;;;;;;;14.05;9.18;;;21.10;91.80;;;;;;5061330;28;20370;-78
2021/09/14 08:20:06;;;;;;;17.90;8.80;;;21.20;90.80;;;;;;5060998;28;20572;-77
2021/09/14 08:22:32;;;;;;;16.88;8.88;;;21.30;90.90;;;;;;5061821;28;20173;-78
2021/09/14 08:24:58;;;;;;;17.57;8.27;;;21.40;90.20;;;;;;5061537;28;20249;-78
2021/09/14 08:27:25;;;;;;;15.20;7.75;;;21.50;90.30;;;;;;5061068;28;20486;-78
2021/09/14 08:29:51;;;;;;;16.58;8.40;;;21.60;90.20;;;;;;5060936;28;20259;-78
2021/09/14 08:32:17;;;;;;;14.00;8.13;;;21.70;89.40;;;;;;5061318;28;20249;-78
2021/09/14 08:34:42;;;;;;;19.53;9.03;;;21.80;89.50;;;;;;5061302;28;20490;-78
2021/09/14 08:37:09;;;;;;;11.60;7.23;;;22.00;88.10;;;;;;5061330;28;20183;-78
2021/09/14 08:39:34;;;;;;;14.20;8.13;;;22.10;88.10;;;;;;5061317;28;20239;-77
2021/09/14 08:42:01;;;;;;;20.33;9.43;;;22.30;86.30;;;;;;5061166;28;20195;-78
2021/09/14 08:44:27;;;;;;;15.65;8.02;;;22.40;87.10;;;;;;5061115;28;20412;-78
2021/09/14 08:46:54;;;;;;;14.60;8.57;;;22.50;86.70;;;;;;5061349;28;20168;-77
2021/09/14 08:49:20;;;;;;;19.17;8.10;;;22.70;85.30;;;;;;5061113;28;20196;-78
2021/09/14 08:51:46;;;;;;;16.73;6.88;;;22.80;84.10;;;;;;5061950;28;20197;-78
2021/09/14 08:54:12;;;;;;;14.23;6.87;;;22.90;84.10;;;;;;5061191;28;20648;-78
2021/09/14 08:56:38;;;;;;;13.33;7.40;;;23.10;82.40;;;;;;5061020;28;20434;-78
2021/09/14 08:59:04;;;;;;;12.73;7.30;;;23.30;82.00;;;;;;5061186;28;20462;-78
2021/09/14 09:01:31;;;;;;;12.00;6.95;;;23.40;80.90;;;;;;5061265;28;20406;-77
2021/09/14 09:04:05;;;;;;;14.23;7.20;;;23.50;80.20;;;;;;5061048;28;20557;-78
2021/09/14 09:06:37;;;;;;;19.98;8.77;;;23.60;81.20;;;;;;5061040;28;20188;-78
2021/09/14 09:09:17;;;;;;;14.35;6.70;;;23.80;80.90;;;;;;5061250;28;20176;-78
2021/09/14 09:12:04;;;;;;;17.65;7.53;;;23.90;80.30;;;;;;5061060;28;20160;-78
2021/09/14 09:14:45;;;;;;;12.43;7.57;;;24.10;79.60;;;;;;5060851;28;20179;-78
2021/09/14 09:17:16;;;;;;;21.63;7.70;;;24.20;79.40;;;;;;5060569;28;20180;-78
2021/09/14 09:19:44;;;;;;;12.45;6.60;;;24.30;78.90;;;;;;5060722;28;20207;-78
2021/09/14 09:22:11;;;;;;;13.15;6.65;;;24.40;77.80;;;;;;5060963;28;20165;-78
2021/09/14 09:24:49;;;;;;;9.05;6.35;;;24.50;78.40;;;;;;5060962;28;20207;-78
2021/09/14 09:27:19;;;;;;;12.35;7.13;;;24.60;77.80;;;;;;5060640;28;20180;-78
2021/09/14 09:29:55;;;;;;;13.50;6.82;;;24.70;77.60;;;;;;5061038;28;20241;-78
2021/09/14 09:32:21;;;;;;;12.25;6.50;;;24.90;77.80;;;;;;5060876;28;20211;-78
2021/09/14 09:34:46;;;;;;;14.40;6.43;;;25.10;77.40;;;;;;5060888;28;20596;-78
2021/09/14 09:37:15;;;;;;;18.90;6.93;;;25.20;76.90;;;;;;5079051;28;20169;-78
2021/09/14 09:39:47;;;;;;;9.15;5.85;;;25.40;76.70;;;;;;5060759;28;20204;-78
2021/09/14 09:42:15;;;;;;;9.68;6.40;;;25.60;75.30;;;;;;5061313;28;20641;-78
2021/09/14 09:44:56;;;;;;;11.32;6.15;;;25.80;74.60;;;;;;5060741;28;20198;-78
2021/09/14 09:47:21;;;;;;;14.82;6.38;;;25.90;74.20;;;;;;5061875;28;20184;-78
2021/09/14 09:49:47;;;;;;;11.63;5.83;;;26.10;73.70;;;;;;5061213;28;20180;-78
2021/09/14 09:52:14;;;;;;;11.33;5.70;;;26.30;72.40;;;;;;5061008;28;20414;-78
2021/09/14 09:54:40;;;;;;;15.25;7.20;;;26.50;71.90;;;;;;5060680;28;20407;-78
2021/09/14 09:57:08;;;;;;;16.40;6.20;;;26.60;72.30;;;;;;5060999;28;20174;-78
2021/09/14 09:59:34;;;;;;;9.63;5.40;;;26.80;71.30;;;;;;5061163;28;20212;-78
2021/09/14 10:02:26;;;;;;;9.80;7.10;;;27.00;71.00;;;;;;5061051;28;20173;-78
2021/09/14 10:04:56;;;;;;;11.40;5.43;;;27.10;68.50;;;;;;5060649;28;20195;-78
2021/09/14 10:07:27;;;;;;;8.90;5.70;;;27.30;69.60;;;;;;5060886;28;20175;-79
2021/09/14 10:09:56;;;;;;;11.70;6.32;;;27.30;68.00;;;;;;5060753;28;20205;-79
2021/09/14 10:12:23;;;;;;;12.52;6.38;;;27.50;68.70;;;;;;5061561;28;20168;-81
2021/09/14 10:14:59;;;;;;;12.30;6.45;;;27.60;66.70;;;;;;5060733;28;20246;-79
2021/09/14 10:17:26;;;;;;;9.48;5.95;;;27.60;66.90;;;;;;5061419;28;20581;-79
2021/09/14 10:19:52;;;;;;;11.13;6.22;;;27.80;67.60;;;;;;5061699;28;20269;-79
2021/09/14 10:22:27;;;;;;;9.55;6.18;;;27.80;66.70;;;;;;5061152;28;20177;-79
2021/09/14 10:25:01;;;;;;;9.60;6.10;;;28.00;66.20;;;;;;5061032;28;20195;-78
2021/09/14 10:27:38;;;;;;;8.43;5.30;;;28.10;67.10;;;;;;5060718;28;20167;-79
2021/09/14 10:30:07;;;;;;;10.20;5.68;;;28.20;65.50;;;;;;5061014;28;20172;-78
2021/09/14 10:32:45;;;;;;;9.07;5.75;;;28.40;65.20;;;;;;5061002;28;20169;-79
2021/09/14 10:35:12;;;;;;;12.07;6.60;;;28.50;65.30;;;;;;5060667;28;20196;-79
2021/09/14 10:37:39;;;;;;;10.30;6.25;;;28.70;64.40;;;;;;5060206;28;20259;-79
2021/09/14 10:40:15;;;;;;;13.05;6.25;;;28.80;63.90;;;;;;5061041;28;20265;-79
2021/09/14 10:42:47;;;;;;;7.95;5.35;;;28.90;63.50;;;;;;5060462;28;20229;-79
2021/09/14 10:45:18;;;;;;;6.65;5.43;;;29.00;62.80;;;;;;5060864;28;20563;-80
2021/09/14 10:47:48;;;;;;;8.32;5.28;;;29.10;62.80;;;;;;5062106;28;20157;-80
2021/09/14 10:50:26;;;;;;;13.60;4.80;;;29.20;62.40;;;;;;5061158;28;20165;-80
2021/09/14 10:53:00;;;;;;;10.02;6.10;;;29.30;61.00;;;;;;5061217;28;20814;-80
2021/09/14 10:55:28;;;;;;;7.78;5.20;;;29.40;63.10;;;;;;5061577;28;20199;-80
2021/09/14 10:58:01;;;;;;;13.15;5.90;;;29.50;61.40;;;;;;5061473;28;20183;-80
2021/09/14 11:00:33;;;;;;;6.15;4.80;;;29.70;61.40;;;;;;5060937;28;20208;-79
2021/09/14 11:03:01;;;;;;;8.80;5.45;;;29.70;60.90;;;;;;5061292;28;20255;-80
2021/09/14 11:05:37;;;;;;;8.30;5.72;;;29.80;61.00;;;;;;5061659;28;20295;-79
2021/09/14 11:08:05;;;;;;;7.82;5.40;;;29.80;60.20;;;;;;5061546;28;20172;-80
2021/09/14 11:10:35;;;;;;;8.30;5.40;;;29.90;62.30;;;;;;5060654;28;20174;-79
2021/09/14 11:13:02;;;;;;;8.18;5.82;;;29.90;62.40;;;;;;5061153;28;20672;-79
2021/09/14 11:15:28;;;;;;;10.05;5.43;;;30.00;62.10;;;;;;5060791;28;20215;-79
2021/09/14 11:17:54;;;;;;;11.23;5.37;;;30.10;59.20;;;;;;5060915;28;20168;-79
2021/09/14 11:20:21;;;;;;;9.60;5.50;;;30.00;59.60;;;;;;5059682;28;20221;-80
2021/09/14 11:22:49;;;;;;;10.63;6.22;;;30.10;59.80;;;;;;5061427;28;20409;-80
2021/09/14 11:25:26;;;;;;;6.30;5.05;;;30.10;59.70;;;;;;5061903;28;20202;-80
2021/09/14 11:27:59;;;;;;;12.32;5.88;;;30.30;58.50;;;;;;5062108;28;20735;-79
2021/09/14 11:30:27;;;;;;;8.40;5.40;;;30.50;58.30;;;;;;5061526;28;20176;-80
2021/09/14 11:32:55;;;;;;;9.55;5.15;;;30.80;59.30;;;;;;5061468;28;20177;-80
2021/09/14 11:35:22;;;;;;;8.02;5.15;;;31.00;57.70;;;;;;5062119;28;20200;-80
2021/09/14 11:37:59;;;;;;;7.43;5.45;;;31.20;56.80;;;;;;5062594;28;20556;-80
2021/09/14 11:40:26;;;;;;;10.88;5.47;;;31.40;57.90;;;;;;5062334;28;20267;-80
2021/09/14 11:42:53;;;;;;;9.48;6.32;;;31.60;56.70;;;;;;5062834;28;20184;-81
2021/09/14 11:45:23;;;;;;;8.20;5.35;;;31.60;55.80;;;;;;5062160;28;20560;-80
2021/09/14 11:47:49;;;;;;;8.40;5.70;;;31.80;55.70;;;;;;5061773;28;20168;-79
2021/09/14 11:50:29;;;;;;;9.60;5.63;;;31.60;55.70;;;;;;5061799;28;20176;-79
2021/09/14 11:53:10;;;;;;;6.95;5.55;;;31.60;55.80;;;;;;5061352;28;20234;-80
2021/09/14 11:55:47;;;;;;;9.88;5.32;;;31.50;56.70;;;;;;5060926;28;20231;-80
2021/09/14 11:58:14;;;;;;;7.43;5.38;;;31.50;56.30;;;;;;5061026;28;20165;-80
2021/09/14 12:00:46;;;;;;;13.50;6.57;;;31.40;55.70;;;;;;5061646;28;20219;-79
2021/09/14 12:03:18;;;;;;;8.15;5.40;;;31.30;57.00;;;;;;5061156;28;20797;-80
2021/09/14 12:05:57;;;;;;;7.63;5.38;;;31.10;56.80;;;;;;5061637;28;20196;-80
2021/09/14 12:08:31;;;;;;;13.10;5.95;;;30.90;57.90;;;;;;5061394;28;20203;-79
2021/09/14 12:10:57;;;;;;;8.05;6.00;;;30.70;57.40;;;;;;5061341;28;20180;-80
2021/09/14 12:13:24;;;;;;;11.90;5.95;;;30.70;58.10;;;;;;5060571;28;20172;-79
2021/09/14 12:15:56;;;;;;;11.15;5.50;;;30.50;57.50;;;;;;5060436;28;20557;-80
2021/09/14 12:18:22;;;;;;;7.90;5.65;;;30.50;59.20;;;;;;5060598;28;20161;-80
2021/09/14 12:20:47;;;;;;;14.33;6.33;;;30.50;58.50;;;;;;5061622;28;20598;-80
2021/09/14 12:23:15;;;;;;;13.13;7.50;;;30.20;58.50;;;;;;5061041;28;20541;-79
2021/09/14 12:25:41;;;;;;;10.73;6.32;;;30.00;59.30;;;;;;5061011;28;20192;-80
2021/09/14 12:28:07;;;;;;;11.02;6.00;;;29.80;59.40;;;;;;5061072;28;20660;-79
2021/09/14 12:30:34;;;;;;;10.60;6.83;;;29.50;60.90;;;;;;5060332;28;20169;-79
2021/09/14 12:33:00;;;;;;;14.50;7.00;;;29.20;61.20;;;;;;5063642;28;20261;-80
2021/09/14 12:35:26;;;;;;;18.38;7.50;;;29.00;62.00;;;;;;5063797;28;20196;-80
2021/09/14 12:37:52;;;;;;;11.65;6.22;;;29.00;62.30;;;;;;5064402;28;20177;-79
2021/09/14 12:40:18;;;;;;;13.10;6.50;;;28.90;63.10;;;;;;5063994;28;20199;-79
2021/09/14 12:42:43;;;;;;;10.50;6.87;;;28.70;63.50;;;;;;5063652;28;20429;-79
2021/09/14 12:45:10;;;;;;;12.67;7.20;;;28.70;64.10;;;;;;5063717;28;20519;-80
2021/09/14 12:47:36;;;;;;;15.18;7.40;;;28.80;63.30;;;;;;5063757;28;20173;-79
2021/09/14 12:50:02;;;;;;;11.23;6.87;;;28.80;63.10;;;;;;5064133;28;20172;-80
2021/09/14 12:52:28;;;;;;;10.85;6.40;;;28.90;62.70;;;;;;5063649;28;20183;-79
2021/09/14 12:54:53;;;;;;;9.67;6.60;;;28.80;63.00;;;;;;5063537;28;20203;-79
2021/09/14 12:57:19;;;;;;;12.47;7.43;;;28.80;64.50;;;;;;5064352;28;20750;-80
2021/09/14 12:59:45;;;;;;;13.07;8.23;;;29.10;62.00;;;;;;5063651;28;20556;-80
2021/09/14 13:02:11;;;;;;;12.73;6.67;;;29.30;62.10;;;;;;5064392;28;20944;-80
2021/09/14 13:04:37;;;;;;;12.33;6.00;;;29.30;62.10;;;;;;5063846;28;20199;-80
2021/09/14 13:07:02;;;;;;;11.70;6.97;;;29.40;62.30;;;;;;5064616;28;20501;-79
2021/09/14 13:09:28;;;;;;;14.70;7.17;;;29.40;60.20;;;;;;5064173;28;20210;-79
2021/09/14 13:11:54;;;;;;;8.50;5.97;;;29.40;59.80;;;;;;5064553;28;20964;-79
2021/09/14 13:17:04;;;;;;;7.20;5.55;;;29.30;60.90;;;;;;5083037;28;20172;-80
2021/09/14 13:19:30;;;;;;;9.83;6.30;;;29.40;60.30;;;;;;5065197;28;20197;-80
2021/09/14 13:21:55;;;;;;;9.57;6.23;;;29.60;60.00;;;;;;5064881;28;20411;-80
2021/09/14 13:24:21;;;;;;;10.07;6.30;;;29.80;59.30;;;;;;5064371;28;20172;-79
2021/09/14 13:26:48;;;;;;;10.03;6.03;;;30.10;57.20;;;;;;5064532;28;20481;-80
2021/09/14 13:29:13;;;;;;;6.78;5.40;;;30.10;58.00;;;;;;5064957;28;20272;-80
2021/09/14 13:31:39;;;;;;;10.57;5.97;;;30.20;58.40;;;;;;5065224;28;20196;-80
2021/09/14 13:34:05;;;;;;;7.50;5.73;;;30.30;57.50;;;;;;5065019;28;20176;-80
2021/09/14 13:36:31;;;;;;;10.37;5.67;;;30.50;57.70;;;;;;5065591;28;20241;-80
2021/09/14 13:38:57;;;;;;;8.60;5.80;;;30.50;57.00;;;;;;5064849;28;20451;-80
2021/09/14 13:41:28;;;;;;;10.30;6.57;;;30.60;56.80;;;;;;5065251;28;20435;-80
2021/09/14 13:43:58;;;;;;;9.70;5.70;;;30.80;56.60;;;;;;5064459;28;20157;-80
2021/09/14 13:46:24;;;;;;;9.35;6.20;;;30.90;57.00;;;;;;5064398;28;20251;-80
2021/09/14 13:48:52;;;;;;;17.10;7.10;;;31.00;54.90;;;;;;5063690;28;20577;-80
2021/09/14 13:51:26;;;;;;;8.30;6.35;;;30.90;57.00;;;;;;5064022;28;20172;-80
2021/09/14 13:53:53;;;;;;;12.63;6.60;;;30.90;55.70;;;;;;5064289;28;20209;-80
2021/09/14 13:56:24;;;;;;;14.00;7.25;;;30.80;56.20;;;;;;5064042;28;20189;-80
2021/09/14 13:58:51;;;;;;;8.05;5.90;;;30.60;57.00;;;;;;5063558;28;20215;-80
2021/09/14 14:01:18;;;;;;;10.23;6.90;;;30.40;58.00;;;;;;5063653;28;20809;-80
2021/09/14 14:03:45;;;;;;;11.45;6.55;;;30.40;58.00;;;;;;5064206;28;20598;-80
2021/09/14 14:06:11;;;;;;;9.55;6.32;;;30.40;57.70;;;;;;5062706;28;20192;-81
2021/09/14 14:08:37;;;;;;;10.18;6.63;;;30.30;58.40;;;;;;5062938;28;20180;-81
2021/09/14 14:11:03;;;;;;;12.60;6.20;;;30.30;57.90;;;;;;5064695;28;20221;-79
2021/09/14 14:13:29;;;;;;;9.07;5.85;;;30.30;59.80;;;;;;5065002;28;20176;-80
2021/09/14 14:15:56;;;;;;;11.80;7.03;;;30.20;59.10;;;;;;5064037;28;20250;-82
2021/09/14 14:18:22;;;;;;;7.82;6.03;;;29.90;59.10;;;;;;5063618;28;20208;-80